Portada
METAR-TAF:

METAR-TAF

Aeropuertos :

Nimes, Francia

latitud: 43-45N, longitud: 004-25E, altitud: 94 m

Observación

El informe se hizo hace 36 minutos, a las 04:00 UTC
Viento 9 kt del norte-noreste
Temperatura 22°C
Humedad 65%
Presión 1011 hPa
Visibilidad 10 km o más
sin nubes por debajo de 1500 m y sin presencia de cumulonimbus.

METAR: LFTW 210400Z AUTO 03009KT CAVOK 22/15 Q1011 NOSIG

Hora: 06:36 (04:36 UTC)

Pronóstico

El informe se hizo hace 2 horas y 36 minutos, a las 02:00 UTC
Pronóstico válido del 21 a las 03 UTC al 22 a las 03 UTC
Viento 10 kt del norte-noreste
Visibilidad 10 km o más
sin nubes por debajo de 1500 m y sin presencia de cumulonimbus.
Evolucionando progresivamente
del 21 a las 09 UTC al 21 a las 11 UTC
Viento 10 kt del sur
Evolucionando progresivamente
del 21 a las 23 UTC al 22 a las 01 UTC
Viento 5 kt con dirección variable

TAF: LFTW 210200Z 2103/2203 02010KT CAVOK BECMG 2109/2111 18010KT BECMG 2123/2201 VRB05KT

Observaciones y pronósticos meteorológicos de más de 4000 aeropuertos (mensajes METAR y TAF).

Los puntos amarillos y rojos representan las estaciones disponibles.

Ponga el ratón en el punto deseado para ver el nombre de la estación.

Haga clic para ver las observaciones y los pronósticos meteorológicos.

Para cambiar el mapa : haga clic en los botones verdes con una cruz de color negro para hacer un zoom, en el botón verde con un guión para alejar o en las flechas verdes para mapas adyacentes.


METAR-TAF: